Time;durP1;ratioP1;P1;durP2;ratioP2;P2;SDS_P1;SDS_P2;PMS_P1;PMS_P2;Temp;Humidity;BMP_temperature;BMP_pressure;BME280_temperature;BME280_humidity;BME280_pressure;Samples;Min_cycle;Max_cycle;Signal;HPM_P1;HPM_P2
2022/07/25 00:01:22;;;;;;;;;17.75;17.75;;;;;26.83;43.15;100206.84;5014664;28;45625;-65
2022/07/25 00:03:47;;;;;;;;;16.00;16.00;;;;;26.81;43.01;100211.53;5014630;28;45373;-66
2022/07/25 00:06:13;;;;;;;;;20.00;17.00;;;;;26.79;43.38;100212.75;5030125;28;47187;-68
2022/07/25 00:08:38;;;;;;;;;17.25;17.25;;;;;26.76;43.08;100205.03;5016338;28;45177;-64
2022/07/25 00:11:04;;;;;;;;;18.25;16.25;;;;;26.72;43.65;100192.91;5016508;28;45432;-70
2022/07/25 00:13:30;;;;;;;;;17.00;17.00;;;;;26.71;43.43;100186.66;5016981;28;45273;-71
2022/07/25 00:15:55;;;;;;;;;20.50;17.75;;;;;26.69;43.44;100184.16;5016809;28;46438;-70
2022/07/25 00:18:20;;;;;;;;;18.75;17.75;;;;;26.65;43.75;100182.81;5016592;28;45772;-68
2022/07/25 00:20:46;;;;;;;;;17.25;17.25;;;;;26.61;43.60;100183.34;5016806;28;45273;-71
2022/07/25 00:23:11;;;;;;;;;15.75;15.75;;;;;26.60;43.88;100179.81;5016599;28;45467;-74
2022/07/25 00:25:36;;;;;;;;;17.50;16.00;;;;;26.57;44.21;100174.78;5016381;28;45244;-73
2022/07/25 00:28:02;;;;;;;;;27.25;24.25;;;;;26.52;44.02;100172.59;5016326;28;45264;-73
2022/07/25 00:30:27;;;;;;;;;15.75;15.75;;;;;26.53;44.15;100170.75;5016552;28;45290;-64
2022/07/25 00:32:52;;;;;;;;;17.50;17.50;;;;;26.52;44.36;100177.16;5016767;28;45521;-67
2022/07/25 00:35:18;;;;;;;;;17.50;17.50;;;;;26.48;44.22;100173.97;5015394;28;53465;-67
2022/07/25 00:37:43;;;;;;;;;18.75;18.75;;;;;26.45;44.54;100173.47;5016212;28;45375;-64
2022/07/25 00:40:09;;;;;;;;;16.00;16.00;;;;;26.44;44.79;100177.19;5016255;28;45261;-67
2022/07/25 00:42:35;;;;;;;;;12.75;12.75;;;;;26.40;44.65;100182.91;5015520;28;45625;-66
2022/07/25 00:45:01;;;;;;;;;20.00;16.50;;;;;26.26;44.79;100156.69;5016126;28;45460;-65
2022/07/25 00:47:26;;;;;;;;;18.00;15.25;;;;;26.35;44.88;100161.03;5017017;28;45438;-66
2022/07/25 00:49:51;;;;;;;;;15.00;15.00;;;;;26.34;44.78;100166.63;5017026;28;45324;-67
2022/07/25 00:52:17;;;;;;;;;15.25;15.00;;;;;26.31;45.05;100151.63;5016575;28;45465;-66
2022/07/25 00:54:42;;;;;;;;;17.00;15.75;;;;;26.29;44.90;100145.56;5015978;28;46421;-70
2022/07/25 00:57:07;;;;;;;;;16.00;16.00;;;;;26.30;44.87;100168.00;5016080;28;45229;-66
2022/07/25 00:59:33;;;;;;;;;17.50;16.25;;;;;26.28;45.31;100154.69;5015942;28;45389;-67
2022/07/25 01:01:58;;;;;;;;;17.00;17.00;;;;;26.26;44.88;100162.09;5016202;28;45481;-66
2022/07/25 01:04:24;;;;;;;;;16.00;15.25;;;;;26.24;44.98;100150.66;5016013;28;46609;-66
2022/07/25 01:06:49;;;;;;;;;16.75;16.75;;;;;26.21;45.44;100148.31;5015652;28;45364;-67
2022/07/25 01:09:15;;;;;;;;;18.25;18.25;;;;;26.24;45.37;100156.03;5015719;28;45279;-65
2022/07/25 01:11:41;;;;;;;;;17.25;17.25;;;;;26.20;45.31;100146.63;5015968;28;45583;-69
2022/07/25 01:14:06;;;;;;;;;17.75;17.75;;;;;26.20;45.18;100160.97;5015524;28;45563;-73
2022/07/25 01:16:31;;;;;;;;;16.25;16.25;;;;;26.18;45.73;100176.47;5015459;28;45524;-66
2022/07/25 01:18:57;;;;;;;;;16.75;15.25;;;;;26.13;45.99;100194.13;5016329;28;45829;-69
2022/07/25 01:21:24;;;;;;;;;15.25;14.75;;;;;26.06;45.89;100183.22;5016021;28;45617;-71
2022/07/25 01:23:50;;;;;;;;;16.00;16.00;;;;;26.04;45.80;100169.91;5015622;28;45424;-69
2022/07/25 01:26:15;;;;;;;;;17.00;16.75;;;;;26.04;45.80;100180.69;5015433;28;45293;-68
2022/07/25 01:28:41;;;;;;;;;16.00;16.00;;;;;26.04;45.46;100180.69;5015600;28;45396;-72
2022/07/25 01:31:06;;;;;;;;;14.75;14.75;;;;;26.03;45.81;100172.78;5015608;28;45425;-67
2022/07/25 01:33:32;;;;;;;;;14.75;14.75;;;;;26.01;45.72;100172.94;5015313;28;46120;-69
2022/07/25 01:35:57;;;;;;;;;15.50;15.50;;;;;26.01;45.76;100180.19;5014204;28;45332;-70
2022/07/25 01:38:23;;;;;;;;;14.75;14.75;;;;;25.97;45.71;100171.59;5015568;28;45272;-72
2022/07/25 01:40:48;;;;;;;;;14.25;14.25;;;;;25.96;45.42;100169.94;5015582;28;45520;-72
2022/07/25 01:43:13;;;;;;;;;16.50;16.50;;;;;25.99;45.54;100182.22;5015277;28;46580;-74
2022/07/25 01:45:39;;;;;;;;;14.75;14.75;;;;;25.98;45.49;100175.13;5015104;28;45325;-74
2022/07/25 01:48:04;;;;;;;;;14.50;14.50;;;;;25.97;45.54;100174.31;5015374;28;45217;-73
2022/07/25 01:50:30;;;;;;;;;14.00;14.00;;;;;25.94;45.50;100169.25;5015937;28;45872;-67
2022/07/25 01:52:55;;;;;;;;;14.75;14.75;;;;;25.94;45.34;100163.88;5015415;28;47176;-67
2022/07/25 01:55:21;;;;;;;;;13.25;13.25;;;;;25.90;45.34;100159.84;5015055;28;45418;-67
2022/07/25 01:57:46;;;;;;;;;10.25;10.25;;;;;25.92;45.29;100155.94;5015129;28;45490;-69
2022/07/25 02:00:14;;;;;;;;;13.75;13.75;;;;;25.91;45.38;100164.22;5015309;28;45190;-69
2022/07/25 02:02:43;;;;;;;;;14.00;14.00;;;;;25.89;45.36;100158.97;5014940;28;47387;-69
2022/07/25 02:05:11;;;;;;;;;9.75;9.75;;;;;25.87;45.53;100162.88;5014979;28;45296;-70
2022/07/25 02:07:36;;;;;;;;;13.25;13.00;;;;;25.83;45.56;100156.97;5015021;28;45269;-69
2022/07/25 02:10:05;;;;;;;;;16.00;16.00;;;;;25.79;45.30;100161.03;5015306;28;45609;-70
2022/07/25 02:12:30;;;;;;;;;15.00;15.00;;;;;25.77;45.55;100163.91;5015603;28;46594;-71
2022/07/25 02:14:56;;;;;;;;;14.50;14.25;;;;;25.74;45.56;100149.94;5015714;28;45400;-68
2022/07/25 02:17:21;;;;;;;;;11.00;11.00;;;;;25.72;45.83;100155.50;5015238;28;45379;-69
2022/07/25 02:19:47;;;;;;;;;11.00;11.00;;;;;25.69;46.19;100155.84;5015201;28;45347;-71
2022/07/25 02:22:12;;;;;;;;;12.25;12.25;;;;;25.63;45.82;100159.22;5014706;28;46314;-68
2022/07/25 02:24:37;;;;;;;;;11.25;11.25;;;;;25.58;46.18;100157.03;5014697;28;45346;-68
2022/07/25 02:27:04;;;;;;;;;12.00;12.00;;;;;25.54;46.33;100157.56;5014741;28;45383;-67
2022/07/25 02:29:29;;;;;;;;;9.50;9.50;;;;;25.42;46.18;100149.78;5015157;28;45273;-72
2022/07/25 02:31:55;;;;;;;;;12.25;12.25;;;;;25.36;46.69;100150.44;5014427;28;46394;-72
2022/07/25 02:34:20;;;;;;;;;11.25;11.25;;;;;25.28;46.89;100159.38;5014781;28;45237;-74
2022/07/25 02:36:46;;;;;;;;;12.50;12.50;;;;;25.17;47.33;100163.25;5014929;28;45312;-75
2022/07/25 02:39:11;;;;;;;;;10.00;10.00;;;;;25.11;47.33;100161.22;5015133;28;45559;-67
2022/07/25 02:41:36;;;;;;;;;9.00;9.00;;;;;24.98;47.52;100150.13;5014419;28;45419;-66
2022/07/25 02:44:03;;;;;;;;;10.75;10.75;;;;;24.86;47.13;100160.34;5014774;28;45310;-66
2022/07/25 02:46:28;;;;;;;;;11.50;11.50;;;;;24.77;47.58;100157.66;5015270;28;45403;-69
2022/07/25 02:48:53;;;;;;;;;11.50;11.50;;;;;24.69;47.77;100151.41;5015188;28;45343;-65
2022/07/25 02:51:19;;;;;;;;;10.00;10.00;;;;;24.60;47.79;100150.53;5014678;28;47206;-65
2022/07/25 02:53:44;;;;;;;;;8.50;8.50;;;;;24.50;48.01;100156.06;5014769;28;45326;-67
2022/07/25 02:56:10;;;;;;;;;8.50;8.50;;;;;24.38;47.97;100155.50;5014543;28;45458;-69
2022/07/25 02:58:35;;;;;;;;;10.50;10.50;;;;;24.28;48.70;100168.22;5017933;28;45464;-69
2022/07/25 03:01:00;;;;;;;;;6.75;6.75;;;;;24.15;48.54;100158.78;5016606;28;48342;-70
2022/07/25 03:03:25;;;;;;;;;7.00;7.00;;;;;24.07;48.61;100154.19;5017806;28;45354;-72
2022/07/25 03:05:51;;;;;;;;;7.75;7.75;;;;;24.01;48.92;100167.44;5016442;28;45462;-75
2022/07/25 03:08:16;;;;;;;;;7.25;7.25;;;;;23.89;48.96;100158.78;5017995;28;45287;-71
2022/07/25 03:10:42;;;;;;;;;7.00;7.00;;;;;23.80;49.21;100157.03;5017591;28;46744;-66
2022/07/25 03:13:07;;;;;;;;;8.00;8.00;;;;;23.70;49.32;100160.69;5017722;28;45355;-66
2022/07/25 03:15:32;;;;;;;;;7.25;7.25;;;;;23.60;49.36;100160.75;5017953;28;45373;-69
2022/07/25 03:17:58;;;;;;;;;7.00;7.00;;;;;23.51;48.64;100166.25;5016270;28;45565;-67
2022/07/25 03:20:23;;;;;;;;;6.75;6.75;;;;;23.43;48.93;100165.19;5017370;28;45293;-69
2022/07/25 03:22:48;;;;;;;;;6.00;6.00;;;;;23.33;48.81;100164.44;5017338;28;45318;-65
2022/07/25 03:25:13;;;;;;;;;7.00;7.00;;;;;23.24;49.22;100166.19;5032599;28;45338;-65
2022/07/25 03:27:39;;;;;;;;;7.00;7.00;;;;;23.16;49.09;100163.41;5017537;28;45247;-66
2022/07/25 03:30:05;;;;;;;;;7.75;7.75;;;;;23.11;49.67;100168.41;5017564;28;45301;-67
2022/07/25 03:32:30;;;;;;;;;7.50;7.50;;;;;23.07;49.42;100170.53;5017462;28;45420;-68
2022/07/25 03:34:56;;;;;;;;;6.00;6.00;;;;;23.02;49.46;100183.56;5017571;28;45343;-67
2022/07/25 03:37:21;;;;;;;;;7.00;7.00;;;;;22.94;49.82;100178.13;5017569;28;45254;-67
2022/07/25 03:39:46;;;;;;;;;7.00;6.00;;;;;22.95;49.65;100194.06;5017183;28;45325;-65
2022/07/25 03:42:12;;;;;;;;;6.00;6.00;;;;;22.90;49.64;100189.16;5017142;28;45268;-68
2022/07/25 03:44:37;;;;;;;;;5.25;5.25;;;;;22.83;49.61;100184.56;5032471;28;45338;-67
2022/07/25 03:47:03;;;;;;;;;5.00;5.00;;;;;22.72;49.71;100204.38;5017636;28;45415;-67
2022/07/25 03:49:29;;;;;;;;;5.75;5.75;;;;;22.64;49.37;100191.72;5016984;28;45430;-70
2022/07/25 03:51:54;;;;;;;;;4.50;4.50;;;;;22.59;48.97;100204.72;5016895;28;45236;-67
2022/07/25 03:54:19;;;;;;;;;4.00;4.00;;;;;22.51;48.98;100200.13;5016603;28;54462;-70
2022/07/25 03:56:48;;;;;;;;;5.00;5.00;;;;;22.52;48.75;100209.84;5017159;28;45260;-70
2022/07/25 03:59:16;;;;;;;;;3.25;3.25;;;;;22.44;48.69;100221.25;5016818;28;45331;-71
2022/07/25 04:01:42;;;;;;;;;3.50;3.50;;;;;22.40;48.11;100229.75;5016686;28;45303;-68
2022/07/25 04:04:11;;;;;;;;;4.25;4.25;;;;;22.29;48.51;100220.94;5016858;28;45566;-70
2022/07/25 04:06:37;;;;;;;;;2.00;2.00;;;;;22.24;48.22;100220.50;5032601;28;45581;-67
2022/07/25 04:09:04;;;;;;;;;3.25;3.25;;;;;22.15;48.12;100224.91;5015808;28;45352;-71
2022/07/25 04:11:29;;;;;;;;;2.00;2.00;;;;;22.15;47.81;100230.28;5016466;28;45583;-68
2022/07/25 04:13:56;;;;;;;;;4.00;4.00;;;;;22.09;47.85;100233.53;5016917;28;45369;-69
2022/07/25 04:16:23;;;;;;;;;3.00;3.00;;;;;22.06;47.57;100231.16;5016654;28;45628;-69
2022/07/25 04:18:50;;;;;;;;;3.75;3.75;;;;;21.99;47.88;100208.63;5016502;28;45686;-70
2022/07/25 04:21:15;;;;;;;;;4.00;4.00;;;;;22.00;48.07;100207.63;5016189;28;45419;-70
2022/07/25 04:23:40;;;;;;;;;2.00;2.00;;;;;21.97;47.92;100219.44;5016379;28;45395;-74
2022/07/25 04:26:06;;;;;;;;;5.00;5.00;;;;;21.98;48.24;100228.34;5017038;28;45487;-73
2022/07/25 04:28:32;;;;;;;;;2.75;2.75;;;;;21.94;48.22;100233.13;5016597;28;46132;-67
2022/07/25 04:30:57;;;;;;;;;3.75;3.75;;;;;21.96;48.28;100233.84;5016269;28;45322;-65
2022/07/25 04:33:23;;;;;;;;;3.00;3.00;;;;;21.94;48.48;100238.50;5016777;28;45917;-65
2022/07/25 04:35:48;;;;;;;;;2.25;2.25;;;;;21.91;48.94;100235.28;5016681;28;45395;-71
2022/07/25 04:38:14;;;;;;;;;2.00;2.00;;;;;21.89;49.39;100235.41;5016293;28;45429;-71
2022/07/25 04:40:39;;;;;;;;;2.00;2.00;;;;;21.81;49.82;100240.63;5016353;28;45386;-69
2022/07/25 04:43:05;;;;;;;;;3.00;3.00;;;;;21.72;50.04;100240.50;5016788;28;45349;-70
2022/07/25 04:45:31;;;;;;;;;3.75;3.75;;;;;21.71;50.19;100244.16;5016695;28;45488;-69
2022/07/25 04:47:57;;;;;;;;;1.00;1.00;;;;;21.73;50.87;100262.75;5032267;28;47137;-66
2022/07/25 04:50:22;;;;;;;;;2.25;2.25;;;;;21.69;50.92;100261.34;5015886;28;46671;-68
2022/07/25 04:52:48;;;;;;;;;2.00;1.50;;;;;21.65;51.51;100255.44;5018102;28;45455;-67
2022/07/25 04:55:13;;;;;;;;;2.25;2.25;;;;;21.59;52.50;100262.16;5017784;28;45384;-67
2022/07/25 04:57:39;;;;;;;;;2.00;2.00;;;;;21.58;52.54;100254.28;5016072;28;46369;-65
2022/07/25 05:00:07;;;;;;;;;1.00;1.00;;;;;21.62;52.79;100254.84;5016106;28;45378;-67
2022/07/25 05:02:33;;;;;;;;;3.75;3.75;;;;;21.63;52.81;100246.72;5016245;28;45498;-68
2022/07/25 05:04:58;;;;;;;;;3.00;3.00;;;;;21.63;52.91;100248.50;5016148;28;45597;-72
2022/07/25 05:07:23;;;;;;;;;1.00;1.00;;;;;21.67;53.06;100253.47;5015696;28;45630;-66
2022/07/25 05:09:49;;;;;;;;;2.00;1.50;;;;;21.63;53.18;100259.19;5015800;28;45229;-69
2022/07/25 05:12:14;;;;;;;;;2.25;2.25;;;;;21.63;53.47;100257.41;5015968;28;45342;-69
2022/07/25 05:14:40;;;;;;;;;1.25;1.25;;;;;21.66;53.52;100258.94;5016439;28;45558;-68
2022/07/25 05:17:05;;;;;;;;;1.00;1.00;;;;;21.67;53.40;100257.97;5015401;28;46020;-67
2022/07/25 05:19:30;;;;;;;;;1.00;1.00;;;;;21.70;53.41;100263.03;5015324;28;45492;-69
2022/07/25 05:21:56;;;;;;;;;2.00;2.00;;;;;21.76;53.24;100262.50;5015855;28;45329;-67
2022/07/25 05:24:22;;;;;;;;;2.00;2.00;;;;;21.76;53.54;100265.16;5015857;28;45497;-67
2022/07/25 05:26:48;;;;;;;;;2.00;2.00;;;;;21.74;53.49;100265.28;5014102;28;48425;-70
2022/07/25 05:29:13;;;;;;;;;1.75;1.75;;;;;21.78;53.79;100276.56;5015436;28;45645;-68
2022/07/25 05:31:39;;;;;;;;;1.00;1.00;;;;;21.76;54.06;100277.69;5015862;28;45386;-68
2022/07/25 05:34:04;;;;;;;;;2.75;2.75;;;;;21.73;53.99;100274.31;5015604;28;45342;-74
2022/07/25 05:36:30;;;;;;;;;2.00;2.00;;;;;21.75;54.05;100282.22;5015193;28;45319;-70
2022/07/25 05:38:55;;;;;;;;;2.25;2.25;;;;;21.76;54.08;100283.03;5015027;28;45420;-68
2022/07/25 05:41:20;;;;;;;;;2.25;2.25;;;;;21.76;54.55;100288.41;5015205;28;45483;-73
2022/07/25 05:43:47;;;;;;;;;1.00;1.00;;;;;21.65;54.51;100290.25;5015775;28;45414;-75
2022/07/25 05:46:13;;;;;;;;;2.00;2.00;;;;;21.59;54.74;100280.91;5015334;28;46243;-72
2022/07/25 05:48:39;;;;;;;;;2.25;2.25;;;;;21.56;54.64;100288.38;5015396;28;45416;-71
2022/07/25 05:51:04;;;;;;;;;2.75;2.75;;;;;21.56;55.15;100286.53;5015229;28;45273;-66
2022/07/25 05:53:29;;;;;;;;;1.00;1.00;;;;;21.59;54.97;100288.94;5015197;28;45221;-67
2022/07/25 05:55:55;;;;;;;;;1.25;1.25;;;;;21.70;54.73;100296.00;5014958;28;46514;-70
2022/07/25 05:58:21;;;;;;;;;2.50;2.50;;;;;21.80;54.59;100295.16;5014791;28;45292;-70
2022/07/25 06:00:47;;;;;;;;;3.00;3.00;;;;;21.83;54.91;100297.56;5015086;28;45200;-69
2022/07/25 06:03:12;;;;;;;;;2.25;2.25;;;;;21.85;54.49;100298.25;5015549;28;45630;-67
2022/07/25 06:05:37;;;;;;;;;2.00;2.00;;;;;21.86;54.39;100307.97;5014980;28;46420;-68
2022/07/25 06:08:03;;;;;;;;;3.00;3.00;;;;;21.87;54.38;100310.53;5014694;28;45416;-67
2022/07/25 06:10:28;;;;;;;;;2.50;2.50;;;;;21.81;54.45;100305.75;5014768;28;45431;-69
2022/07/25 06:12:54;;;;;;;;;2.25;2.25;;;;;21.76;54.61;100305.31;5014629;28;45360;-79
2022/07/25 06:15:19;;;;;;;;;1.50;1.50;;;;;21.73;54.75;100314.47;5015431;28;45367;-75
2022/07/25 06:17:44;;;;;;;;;2.00;2.00;;;;;21.71;54.93;100316.44;5016007;28;45422;-73
2022/07/25 06:20:11;;;;;;;;;3.00;3.00;;;;;21.69;55.07;100321.09;5014644;28;45392;-73
2022/07/25 06:22:37;;;;;;;;;3.00;3.00;;;;;21.64;55.31;100327.84;5015114;28;45647;-72
2022/07/25 06:25:03;;;;;;;;;2.00;2.00;;;;;21.60;55.21;100328.09;5012656;28;45447;-70
2022/07/25 06:27:28;;;;;;;;;2.50;2.50;;;;;21.61;55.36;100326.28;5013165;28;45557;-69
2022/07/25 06:29:53;;;;;;;;;2.50;2.50;;;;;21.59;55.33;100329.06;5015278;28;45316;-71
2022/07/25 06:32:18;;;;;;;;;4.25;3.50;;;;;21.58;55.75;100326.53;5009783;28;45186;-66
2022/07/25 06:34:44;;;;;;;;;4.00;4.00;;;;;21.56;55.76;100328.53;5001784;28;45689;-69
2022/07/25 06:37:09;;;;;;;;;3.75;3.75;;;;;21.60;55.20;100333.44;5033376;28;45655;-73
2022/07/25 06:39:35;;;;;;;;;3.00;3.00;;;;;21.58;55.41;100335.41;5015659;28;45233;-79
2022/07/25 06:42:02;;;;;;;;;3.00;3.00;;;;;21.60;55.61;100348.66;5022538;28;45395;-72
2022/07/25 06:44:30;;;;;;;;;3.00;3.00;;;;;21.62;55.89;100336.00;5011224;28;45914;-70
2022/07/25 06:46:56;;;;;;;;;2.75;2.00;;;;;21.66;55.72;100339.25;5015494;28;45729;-68
2022/07/25 06:49:21;;;;;;;;;2.25;2.25;;;;;21.72;55.88;100342.22;5023033;28;45354;-72
2022/07/25 06:51:46;;;;;;;;;2.00;2.00;;;;;21.78;56.04;100350.69;5020408;28;45603;-72
2022/07/25 06:54:14;;;;;;;;;3.00;3.00;;;;;21.83;56.24;100348.41;5030729;28;45530;-74
2022/07/25 06:56:39;;;;;;;;;2.25;2.25;;;;;21.85;56.19;100347.31;5042280;28;45410;-72
2022/07/25 06:59:05;;;;;;;;;3.75;3.75;;;;;21.85;56.50;100355.34;5023555;28;45511;-71
2022/07/25 07:01:30;;;;;;;;;3.00;3.00;;;;;21.83;56.92;100353.78;5016489;28;45454;-81
2022/07/25 07:03:55;;;;;;;;;3.75;2.50;;;;;21.83;57.01;100360.00;5015852;28;45563;-80
2022/07/25 07:06:21;;;;;;;;;3.25;3.25;;;;;21.83;56.97;100353.78;5015435;28;45428;-83
2022/07/25 07:08:46;;;;;;;;;3.25;3.25;;;;;21.85;57.08;100366.03;5015541;28;45353;-72
2022/07/25 07:11:14;;;;;;;;;3.25;3.25;;;;;21.89;56.99;100366.59;5017152;28;45466;-69
2022/07/25 07:13:39;;;;;;;;;3.00;3.00;;;;;21.89;57.13;100374.63;5014198;28;45387;-74
2022/07/25 07:16:05;;;;;;;;;3.50;3.50;;;;;21.92;56.93;100377.03;5013920;28;45436;-67
2022/07/25 07:18:30;;;;;;;;;2.50;2.50;;;;;22.00;56.33;100374.47;5013584;28;45783;-66
2022/07/25 07:20:55;;;;;;;;;2.00;2.00;;;;;22.16;56.46;100373.06;5011961;28;45652;-65
2022/07/25 07:23:21;;;;;;;;;3.25;3.25;;;;;22.24;56.07;100375.88;5017767;28;46423;-64
2022/07/25 07:25:47;;;;;;;;;3.75;3.75;;;;;22.27;55.72;100364.91;5012362;28;45460;-64
2022/07/25 07:28:13;;;;;;;;;2.75;2.75;;;;;22.38;55.47;100381.81;5013985;28;45403;-65
2022/07/25 07:30:38;;;;;;;;;3.00;3.00;;;;;22.45;55.63;100385.63;5012699;28;45372;-66
2022/07/25 07:33:03;;;;;;;;;4.00;4.00;;;;;22.52;55.51;100385.88;5013589;28;45372;-68
2022/07/25 07:35:29;;;;;;;;;3.25;3.25;;;;;22.58;55.20;100379.94;5012564;28;45255;-68
2022/07/25 07:37:54;;;;;;;;;2.25;2.25;;;;;22.53;55.40;100363.44;5012701;28;45377;-64
2022/07/25 07:40:21;;;;;;;;;3.00;3.00;;;;;22.66;55.31;100381.91;5013364;28;45190;-65
2022/07/25 07:42:49;;;;;;;;;4.00;4.00;;;;;22.72;55.10;100394.72;5014605;28;46152;-69
2022/07/25 07:45:17;;;;;;;;;3.25;3.25;;;;;22.77;54.90;100389.78;5017073;28;45305;-64
2022/07/25 07:47:45;;;;;;;;;2.00;2.00;;;;;22.83;54.70;100388.34;5017042;28;45462;-64
2022/07/25 07:50:11;;;;;;;;;3.75;3.75;;;;;22.87;54.77;100389.75;5017049;28;45240;-67
2022/07/25 07:52:36;;;;;;;;;3.00;3.00;;;;;22.86;54.58;100393.41;5016481;28;46228;-65
2022/07/25 07:57:47;;;;;;;;;2.50;2.50;;;;;22.96;54.81;100401.41;5017514;28;45253;-65
2022/07/25 08:00:13;;;;;;;;;3.00;3.00;;;;;23.04;54.99;100401.50;5016923;28;45315;-67
2022/07/25 08:02:47;;;;;;;;;2.00;2.00;;;;;23.10;54.63;100400.09;5016611;28;46185;-67
2022/07/25 08:05:22;;;;;;;;;2.75;2.75;;;;;23.16;54.82;100400.34;5016291;28;45520;-65
2022/07/25 08:07:50;;;;;;;;;2.00;2.00;;;;;23.29;54.84;100405.41;5017099;28;45530;-66
2022/07/25 08:10:20;;;;;;;;;2.75;2.75;;;;;23.38;54.58;100400.97;5016946;28;45617;-64
2022/07/25 08:12:46;;;;;;;;;0.50;0.50;;;;;23.41;54.33;100395.31;5016716;28;45585;-66
2022/07/25 08:15:11;;;;;;;;;1.25;1.25;;;;;23.57;53.69;100407.22;5016405;28;45223;-66
2022/07/25 08:17:36;;;;;;;;;2.00;2.00;;;;;23.66;53.52;100411.69;5014804;28;45559;-68
2022/07/25 08:20:07;;;;;;;;;0.75;0.75;;;;;23.72;53.95;100416.44;5016402;28;45534;-68
2022/07/25 08:22:50;;;;;;;;;2.00;2.00;;;;;23.76;53.34;100412.47;5016032;28;46119;-69
2022/07/25 08:25:19;;;;;;;;;1.00;1.00;;;;;23.81;53.45;100421.91;5016698;28;45368;-73
2022/07/25 08:27:44;;;;;;;;;1.00;1.00;;;;;23.86;52.89;100420.47;5015160;28;45202;-65
2022/07/25 08:30:12;;;;;;;;;1.50;1.50;;;;;23.95;52.50;100420.53;5016671;28;45862;-67
2022/07/25 08:32:51;;;;;;;;;2.00;2.00;;;;;24.01;52.49;100415.41;5016134;28;46410;-67
2022/07/25 08:35:21;;;;;;;;;1.50;1.50;;;;;24.12;52.20;100418.84;5016375;28;45289;-70
2022/07/25 08:37:47;;;;;;;;;2.00;2.00;;;;;24.17;52.60;100412.03;5016085;28;45253;-66
2022/07/25 08:40:14;;;;;;;;;2.50;2.50;;;;;24.26;51.94;100412.09;5016200;28;45513;-67
2022/07/25 08:42:40;;;;;;;;;1.00;1.00;;;;;24.31;51.69;100432.13;5014345;28;47464;-69
2022/07/25 08:45:08;;;;;;;;;1.00;1.00;;;;;24.34;51.77;100428.28;5014927;28;45285;-71
2022/07/25 08:47:34;;;;;;;;;2.75;2.75;;;;;24.54;51.56;100430.78;5016632;28;45339;-67
2022/07/25 08:50:04;;;;;;;;;4.00;4.00;;;;;24.74;50.67;100420.72;5016544;28;45248;-70
2022/07/25 08:52:34;;;;;;;;;1.00;1.00;;;;;25.05;50.54;100428.28;5016125;28;46604;-69
2022/07/25 08:55:00;;;;;;;;;1.00;1.00;;;;;25.39;49.71;100435.47;5014928;28;45348;-73
2022/07/25 08:57:25;;;;;;;;;1.00;1.00;;;;;25.56;49.28;100430.22;5014721;28;45237;-68
2022/07/25 08:59:50;;;;;;;;;2.00;2.00;;;;;25.74;49.08;100428.22;5016762;28;45194;-67
2022/07/25 09:02:16;;;;;;;;;1.25;1.25;;;;;25.89;48.80;100422.19;5015990;28;46127;-66
2022/07/25 09:04:42;;;;;;;;;2.00;2.00;;;;;25.94;48.57;100433.31;5015875;28;45388;-68
2022/07/25 09:07:08;;;;;;;;;2.00;2.00;;;;;26.05;48.47;100435.69;5015816;28;45457;-67
2022/07/25 09:09:37;;;;;;;;;0.25;0.25;;;;;26.23;48.21;100440.09;5015958;28;45478;-65
2022/07/25 09:12:03;;;;;;;;;1.75;1.75;;;;;26.31;47.85;100429.31;5015365;28;45861;-62
2022/07/25 09:14:28;;;;;;;;;2.00;2.00;;;;;26.41;47.46;100439.94;5015630;28;45234;-64
2022/07/25 09:16:54;;;;;;;;;2.75;2.75;;;;;26.50;47.65;100443.47;5015416;28;45509;-65
2022/07/25 09:19:22;;;;;;;;;1.00;1.00;;;;;26.56;47.14;100442.81;5016310;28;45487;-67
2022/07/25 09:22:17;;;;;;;;;2.25;2.25;;;;;26.56;47.07;100453.59;5015554;28;46994;-66
2022/07/25 09:24:46;;;;;;;;;4.00;4.00;;;;;26.46;47.25;100452.91;5019219;28;45585;-63
2022/07/25 09:27:11;;;;;;;;;1.75;1.75;;;;;26.50;47.49;100457.81;5014083;28;45440;-68
2022/07/25 09:29:38;;;;;;;;;1.75;1.75;;;;;26.67;46.88;100450.53;5014155;28;45435;-64
2022/07/25 09:32:21;;;;;;;;;3.00;3.00;;;;;26.97;46.59;100448.16;5014908;28;45478;-64
2022/07/25 09:34:48;;;;;;;;;2.50;2.50;;;;;27.16;45.72;100451.47;5015234;28;45350;-63
2022/07/25 09:37:16;;;;;;;;;3.00;3.00;;;;;27.23;45.24;100463.25;5015180;28;45225;-66
2022/07/25 09:39:48;;;;;;;;;2.00;2.00;;;;;27.17;45.49;100460.41;5015128;28;45451;-63
2022/07/25 09:42:24;;;;;;;;;2.50;2.50;;;;;27.11;45.85;100460.09;5015128;28;45523;-67
2022/07/25 09:45:06;;;;;;;;;3.00;3.00;;;;;27.06;45.90;100464.31;5015354;28;45243;-65
2022/07/25 09:47:35;;;;;;;;;2.00;2.00;;;;;27.04;45.51;100463.66;5015304;28;45443;-64
2022/07/25 09:50:01;;;;;;;;;2.75;2.75;;;;;27.04;45.54;100477.16;5014972;28;45274;-63
2022/07/25 09:52:27;;;;;;;;;2.25;2.25;;;;;26.98;45.51;100465.16;5014063;28;46269;-65
2022/07/25 09:54:53;;;;;;;;;2.75;2.75;;;;;27.10;45.24;100476.44;5015084;28;45246;-63
2022/07/25 09:57:19;;;;;;;;;3.00;3.00;;;;;27.15;45.09;100465.97;5014872;28;45495;-64
2022/07/25 09:59:45;;;;;;;;;2.00;2.00;;;;;27.23;45.32;100474.03;5014891;28;45745;-64
2022/07/25 10:02:24;;;;;;;;;2.00;2.00;;;;;27.35;44.85;100474.53;5014405;28;46440;-69
2022/07/25 10:05:15;;;;;;;;;2.00;2.00;;;;;27.50;44.64;100473.81;5014763;28;45403;-68
2022/07/25 10:07:45;;;;;;;;;2.75;2.75;;;;;27.49;44.53;100477.50;5013847;28;45911;-64
2022/07/25 10:10:29;;;;;;;;;4.00;4.00;;;;;27.43;44.67;100473.63;5014734;28;45422;-69
2022/07/25 10:13:16;;;;;;;;;7.25;7.25;;;;;27.61;44.79;100475.28;5014506;28;46016;-64
2022/07/25 10:15:51;;;;;;;;;2.00;2.00;;;;;27.91;43.63;100478.16;5014383;28;45328;-65
2022/07/25 10:18:19;;;;;;;;;2.75;2.75;;;;;28.03;43.39;100484.84;5014420;28;45492;-69
2022/07/25 10:20:45;;;;;;;;;4.00;4.00;;;;;28.10;43.06;100476.84;5013196;28;45590;-65
2022/07/25 10:23:17;;;;;;;;;4.50;4.50;;;;;28.18;43.14;100478.69;5014122;28;45368;-67
2022/07/25 10:25:43;;;;;;;;;3.25;3.25;;;;;28.10;42.80;100479.53;5012846;28;45353;-72
2022/07/25 10:28:09;;;;;;;;;3.00;3.00;;;;;27.93;43.30;100482.34;5014350;28;45411;-69
2022/07/25 10:30:37;;;;;;;;;2.00;2.00;;;;;27.67;43.44;100486.22;5014504;28;45552;-72
2022/07/25 10:33:09;;;;;;;;;6.00;4.50;;;;;27.45;43.66;100487.78;5014113;28;45455;-68
2022/07/25 10:35:35;;;;;;;;;3.75;3.75;;;;;27.42;43.81;100490.84;5014134;28;45479;-67
2022/07/25 10:38:03;;;;;;;;;1.75;1.75;;;;;27.33;44.14;100500.84;5014375;28;45286;-71
2022/07/25 10:40:40;;;;;;;;;5.75;5.75;;;;;27.18;43.76;100498.03;5046841;28;45410;-72
2022/07/25 10:43:07;;;;;;;;;4.00;4.00;;;;;27.05;43.96;100493.19;5013946;28;46286;-71
2022/07/25 10:45:40;;;;;;;;;4.00;4.00;;;;;27.00;44.37;100497.41;5014302;28;45363;-70
2022/07/25 10:48:10;;;;;;;;;2.00;2.00;;;;;27.10;44.45;100498.03;5015112;28;45166;-68
2022/07/25 10:50:59;;;;;;;;;3.25;3.25;;;;;27.31;44.64;100504.72;5015234;28;45448;-71
2022/07/25 10:53:43;;;;;;;;;2.25;2.25;;;;;27.48;44.14;100506.34;5015102;28;45416;-69
2022/07/25 10:56:20;;;;;;;;;4.75;4.75;;;;;27.50;43.89;100506.22;5014254;28;45306;-67
2022/07/25 10:58:55;;;;;;;;;2.00;2.00;;;;;27.35;43.71;100503.38;5014015;28;45218;-68
2022/07/25 11:01:22;;;;;;;;;2.50;2.50;;;;;27.03;43.56;100511.38;5014429;28;45527;-66
2022/07/25 11:03:49;;;;;;;;;4.00;4.00;;;;;26.71;44.64;100514.94;5013839;28;45543;-67
2022/07/25 11:06:15;;;;;;;;;4.25;4.25;;;;;26.47;44.75;100506.69;5014549;28;45408;-71
2022/07/25 11:08:42;;;;;;;;;4.00;4.00;;;;;26.39;45.70;100512.91;5016111;28;45330;-70
2022/07/25 11:11:09;;;;;;;;;2.00;2.00;;;;;26.52;45.92;100515.09;5014160;28;45315;-68
2022/07/25 11:13:36;;;;;;;;;3.00;3.00;;;;;26.74;45.91;100517.31;5013894;28;45722;-65
2022/07/25 11:16:02;;;;;;;;;3.50;3.50;;;;;26.95;45.64;100516.78;5013797;28;45300;-64
2022/07/25 11:18:39;;;;;;;;;3.00;3.00;;;;;27.18;45.44;100508.00;5015530;28;45368;-64
2022/07/25 11:21:06;;;;;;;;;3.25;3.25;;;;;27.38;44.91;100511.97;5017590;28;45456;-69
2022/07/25 11:23:33;;;;;;;;;4.00;4.00;;;;;27.68;44.83;100519.50;5017484;28;46351;-68